createdAt,value
2022-07-29T00:01:06.724Z,68.40
2022-07-29T00:02:39.853Z,67.70
2022-07-29T00:04:13.250Z,67.70
2022-07-29T00:05:46.691Z,67.70
2022-07-29T00:07:19.716Z,67.60
2022-07-29T00:08:54.145Z,67.60
2022-07-29T00:10:27.124Z,67.60
2022-07-29T00:12:02.126Z,67.60
2022-07-29T00:13:35.108Z,67.60
2022-07-29T00:15:09.171Z,67.70
2022-07-29T00:16:42.184Z,67.80
2022-07-29T00:18:15.200Z,67.90
2022-07-29T00:19:48.255Z,68.00
2022-07-29T00:21:21.339Z,68.00
2022-07-29T00:22:54.187Z,67.90
2022-07-29T00:24:28.646Z,68.00
2022-07-29T00:26:01.635Z,68.30
2022-07-29T00:27:34.658Z,68.10
2022-07-29T00:29:33.035Z,68.10
2022-07-29T00:31:00.591Z,68.00
2022-07-29T00:32:33.419Z,67.90
2022-07-29T00:34:07.303Z,67.90
2022-07-29T00:35:44.891Z,68.00
2022-07-29T00:37:17.296Z,67.90
2022-07-29T00:38:50.867Z,68.10
2022-07-29T00:40:25.902Z,68.00
2022-07-29T00:41:58.887Z,68.00
2022-07-29T00:43:31.851Z,68.00
2022-07-29T00:45:05.307Z,68.10
2022-07-29T00:46:38.333Z,67.90
2022-07-29T00:48:11.931Z,68.00
2022-07-29T00:49:44.445Z,68.20
2022-07-29T00:51:17.572Z,68.40
2022-07-29T00:52:50.651Z,68.30
2022-07-29T00:54:22.725Z,68.10
2022-07-29T00:55:57.699Z,68.40
2022-07-29T00:57:29.780Z,68.30
2022-07-29T00:59:02.849Z,68.50
2022-07-29T01:00:36.179Z,68.50
2022-07-29T01:02:08.435Z,68.50
2022-07-29T01:03:41.665Z,68.50
2022-07-29T01:05:14.940Z,68.60
2022-07-29T01:06:48.436Z,68.80
2022-07-29T01:08:22.476Z,68.90
2022-07-29T01:09:56.649Z,69.00
2022-07-29T01:11:31.197Z,69.00
2022-07-29T01:13:04.468Z,69.00
2022-07-29T01:14:41.471Z,69.00
2022-07-29T01:16:20.255Z,68.90
2022-07-29T01:18:03.503Z,69.10
2022-07-29T01:19:49.786Z,69.30
2022-07-29T01:21:44.506Z,69.40
2022-07-29T01:23:53.452Z,69.30
2022-07-29T01:25:59.601Z,70.10
2022-07-29T01:27:44.525Z,69.70
2022-07-29T01:29:35.946Z,69.70
2022-07-29T01:31:15.604Z,69.90
2022-07-29T01:33:03.750Z,70.10
2022-07-29T01:34:43.334Z,70.20
2022-07-29T01:36:22.813Z,70.40
2022-07-29T01:38:03.302Z,70.40
2022-07-29T01:39:39.291Z,70.50
2022-07-29T01:41:17.240Z,70.70
2022-07-29T01:42:53.635Z,70.90
2022-07-29T01:44:33.223Z,70.80
2022-07-29T01:46:11.625Z,71.10
2022-07-29T01:47:48.721Z,71.40
2022-07-29T01:49:27.801Z,72.00
2022-07-29T01:51:06.605Z,71.70
2022-07-29T01:52:57.183Z,71.70
2022-07-29T01:54:36.310Z,71.70
2022-07-29T01:56:12.322Z,71.90
2022-07-29T01:57:48.752Z,71.90
2022-07-29T01:59:24.219Z,72.10
2022-07-29T02:00:59.537Z,72.30
2022-07-29T02:02:33.942Z,72.30
2022-07-29T02:04:09.348Z,72.20
2022-07-29T02:05:46.116Z,72.50
2022-07-29T02:07:21.838Z,72.60
2022-07-29T02:08:56.174Z,72.50
2022-07-29T02:10:33.638Z,72.60
2022-07-29T02:12:09.262Z,72.50
2022-07-29T02:13:43.613Z,72.50
2022-07-29T02:15:18.615Z,72.40
2022-07-29T02:16:55.265Z,72.40
2022-07-29T02:18:30.820Z,72.30
2022-07-29T02:20:07.032Z,72.20
2022-07-29T02:21:40.755Z,72.40
2022-07-29T02:23:14.775Z,72.40
2022-07-29T02:24:49.866Z,72.50
2022-07-29T02:26:25.136Z,72.60
2022-07-29T02:27:59.412Z,72.50
2022-07-29T02:29:34.536Z,72.30
2022-07-29T02:31:08.670Z,72.20
2022-07-29T02:32:45.452Z,72.00
2022-07-29T02:34:21.728Z,72.10
2022-07-29T02:35:55.222Z,72.00
2022-07-29T02:37:30.150Z,71.70
2022-07-29T02:39:04.372Z,71.80
2022-07-29T02:40:41.784Z,71.90
2022-07-29T02:42:18.591Z,71.60
2022-07-29T02:43:56.415Z,71.40
2022-07-29T02:45:30.680Z,71.40
2022-07-29T02:47:09.447Z,71.40
2022-07-29T02:48:53.896Z,71.20
2022-07-29T02:50:33.958Z,71.10
2022-07-29T02:52:11.557Z,71.20
2022-07-29T02:53:59.134Z,71.00
2022-07-29T02:55:35.891Z,71.20
2022-07-29T02:57:15.618Z,71.20
2022-07-29T02:58:54.585Z,71.30
2022-07-29T03:00:31.740Z,71.40
2022-07-29T03:02:06.756Z,71.40
2022-07-29T03:03:40.337Z,71.70
2022-07-29T03:05:19.655Z,71.60
2022-07-29T03:06:54.441Z,71.80
2022-07-29T03:08:29.749Z,71.90
2022-07-29T03:10:03.942Z,72.00
2022-07-29T03:11:42.360Z,72.00
2022-07-29T03:13:23.928Z,72.00
2022-07-29T03:14:58.567Z,72.10
2022-07-29T03:16:32.389Z,71.90
2022-07-29T03:18:09.152Z,71.70
2022-07-29T03:19:42.610Z,71.30
2022-07-29T03:21:16.053Z,71.10
2022-07-29T03:22:49.202Z,70.90
2022-07-29T03:24:28.750Z,71.00
2022-07-29T03:26:01.933Z,71.20
2022-07-29T03:27:34.805Z,70.90
2022-07-29T03:29:07.762Z,70.90
2022-07-29T03:30:46.452Z,70.80
2022-07-29T03:32:24.046Z,71.40
2022-07-29T03:33:58.481Z,70.80
2022-07-29T03:35:32.615Z,70.80
2022-07-29T03:37:07.830Z,71.10
2022-07-29T03:38:44.422Z,71.00
2022-07-29T03:40:21.983Z,71.10
2022-07-29T03:42:00.638Z,71.20
2022-07-29T03:43:36.427Z,71.00
2022-07-29T03:45:12.407Z,71.10
2022-07-29T03:46:48.371Z,71.10
2022-07-29T03:48:24.119Z,71.20
2022-07-29T03:50:01.895Z,71.20
2022-07-29T03:51:34.931Z,71.30
2022-07-29T03:53:10.441Z,71.30
2022-07-29T03:54:43.600Z,71.40
2022-07-29T03:56:17.727Z,71.50
2022-07-29T03:57:51.608Z,71.50
2022-07-29T03:59:25.136Z,71.50
2022-07-29T04:00:59.475Z,71.60
2022-07-29T04:02:33.766Z,71.60
2022-07-29T04:04:07.479Z,71.80
2022-07-29T04:05:40.776Z,71.80
2022-07-29T04:07:16.875Z,71.60
2022-07-29T04:08:51.356Z,71.70
2022-07-29T04:10:30.134Z,71.70
2022-07-29T04:12:05.387Z,72.00
2022-07-29T04:13:38.673Z,72.10
2022-07-29T04:15:12.815Z,72.30
2022-07-29T04:16:45.984Z,72.40
2022-07-29T04:18:18.971Z,72.40
2022-07-29T04:19:52.031Z,72.50
2022-07-29T04:21:25.043Z,72.50
2022-07-29T04:22:58.050Z,72.50
2022-07-29T04:24:32.569Z,72.40
2022-07-29T04:26:05.507Z,72.00
2022-07-29T04:27:58.617Z,72.00
2022-07-29T04:29:31.681Z,72.00
2022-07-29T04:31:04.893Z,71.90
2022-07-29T04:32:37.902Z,71.80
2022-07-29T04:34:11.327Z,71.60
2022-07-29T04:35:52.325Z,71.60
2022-07-29T04:37:27.809Z,71.70
2022-07-29T04:39:01.961Z,71.60
2022-07-29T04:40:38.703Z,71.70
2022-07-29T04:42:11.761Z,71.60
2022-07-29T04:43:46.366Z,71.70
2022-07-29T04:45:22.233Z,71.90
2022-07-29T04:46:55.825Z,72.10
2022-07-29T04:48:28.833Z,72.10
2022-07-29T04:50:01.984Z,72.30
2022-07-29T04:51:35.047Z,72.50
2022-07-29T04:53:08.451Z,72.60
2022-07-29T04:54:41.464Z,72.80
2022-07-29T04:56:15.822Z,72.80
2022-07-29T04:57:48.912Z,72.90
2022-07-29T04:59:21.955Z,73.10
2022-07-29T05:00:54.978Z,73.00
2022-07-29T05:02:27.083Z,73.00
2022-07-29T05:04:00.842Z,73.00
2022-07-29T05:05:34.419Z,72.80
2022-07-29T05:07:07.487Z,72.70
2022-07-29T05:08:41.953Z,72.70
2022-07-29T05:10:14.224Z,72.60
2022-07-29T05:11:48.617Z,72.50
2022-07-29T05:13:21.753Z,72.40
2022-07-29T05:14:53.663Z,72.30
2022-07-29T05:16:26.950Z,72.20
2022-07-29T05:18:00.030Z,72.20
2022-07-29T05:19:32.772Z,72.10
2022-07-29T05:21:05.726Z,72.20
2022-07-29T05:22:38.722Z,72.00
2022-07-29T05:24:12.663Z,72.00
2022-07-29T05:25:45.861Z,72.10
2022-07-29T05:27:20.296Z,72.00
2022-07-29T05:28:54.780Z,71.80
2022-07-29T05:30:26.993Z,71.70
2022-07-29T05:32:00.020Z,71.70
2022-07-29T05:33:36.229Z,71.70
2022-07-29T05:35:10.524Z,71.70
2022-07-29T05:36:43.575Z,71.70
2022-07-29T05:38:16.677Z,71.70
2022-07-29T05:39:56.229Z,71.70
2022-07-29T05:41:30.355Z,71.70
2022-07-29T05:43:04.700Z,71.80
2022-07-29T05:44:39.171Z,71.60
2022-07-29T05:46:12.280Z,71.60
2022-07-29T05:47:45.189Z,71.70
2022-07-29T05:49:26.874Z,71.50
2022-07-29T05:51:00.463Z,71.80
2022-07-29T05:52:33.523Z,71.20
2022-07-29T05:54:06.402Z,71.10
2022-07-29T05:55:39.420Z,71.20
2022-07-29T05:57:17.606Z,71.20
2022-07-29T05:58:51.920Z,71.20
2022-07-29T06:00:25.222Z,71.40
2022-07-29T06:08:32.359Z,72.40
2022-07-29T06:10:06.012Z,72.40
2022-07-29T06:11:38.929Z,72.20
2022-07-29T06:13:12.286Z,72.30
2022-07-29T06:14:48.151Z,72.00
2022-07-29T06:16:29.985Z,72.10
2022-07-29T06:18:03.483Z,72.10
2022-07-29T06:19:37.296Z,71.80
2022-07-29T06:21:11.655Z,71.50
2022-07-29T06:22:44.929Z,71.50
2022-07-29T06:24:18.597Z,71.20
2022-07-29T06:25:52.018Z,71.20
2022-07-29T06:27:24.991Z,70.70
2022-07-29T06:28:57.959Z,70.60
2022-07-29T06:30:32.531Z,70.40
2022-07-29T06:32:06.237Z,70.10
2022-07-29T06:33:39.308Z,70.00
2022-07-29T06:35:37.638Z,70.00
2022-07-29T06:37:09.000Z,69.90
2022-07-29T06:38:51.466Z,69.50
2022-07-29T06:40:42.892Z,69.30
2022-07-29T06:42:16.070Z,69.30
2022-07-29T06:43:51.730Z,69.50
2022-07-29T06:45:25.197Z,69.60
2022-07-29T06:47:05.687Z,69.40
2022-07-29T06:48:39.468Z,69.40
2022-07-29T06:50:13.465Z,69.30
2022-07-29T06:51:46.527Z,69.20
2022-07-29T06:53:19.277Z,69.00
2022-07-29T06:54:52.219Z,68.90
2022-07-29T06:56:25.684Z,68.70
2022-07-29T06:57:58.733Z,68.60
2022-07-29T06:59:35.625Z,68.70
2022-07-29T07:01:09.417Z,68.70
2022-07-29T07:02:43.880Z,68.90
2022-07-29T07:04:17.323Z,68.50
2022-07-29T07:05:50.906Z,68.60
2022-07-29T07:07:23.895Z,68.70
2022-07-29T07:08:56.994Z,68.70
2022-07-29T07:10:30.263Z,69.20
2022-07-29T07:12:03.202Z,68.70
2022-07-29T07:13:36.721Z,68.70
2022-07-29T07:15:10.459Z,68.80
2022-07-29T07:16:43.509Z,68.90
2022-07-29T07:18:17.876Z,69.10
2022-07-29T07:19:50.867Z,69.50
2022-07-29T07:21:23.828Z,69.60
2022-07-29T07:22:55.989Z,69.80
2022-07-29T07:24:29.073Z,69.80
2022-07-29T07:26:01.906Z,69.70
2022-07-29T07:27:34.915Z,69.60
2022-07-29T07:29:08.197Z,69.70
2022-07-29T07:30:42.140Z,69.60
2022-07-29T07:32:17.195Z,69.30
2022-07-29T07:33:52.671Z,69.00
2022-07-29T07:35:25.777Z,69.30
2022-07-29T07:36:58.554Z,68.50
2022-07-29T07:38:31.602Z,68.30
2022-07-29T07:40:04.402Z,68.20
2022-07-29T07:41:37.389Z,68.00
2022-07-29T07:43:10.474Z,67.50
2022-07-29T07:45:11.064Z,67.00
2022-07-29T07:46:36.583Z,66.60
2022-07-29T07:48:11.636Z,66.30
2022-07-29T07:49:46.016Z,65.70
2022-07-29T07:51:19.148Z,65.70
2022-07-29T07:52:54.529Z,65.70
2022-07-29T07:54:27.557Z,65.90
2022-07-29T07:56:10.447Z,65.60
2022-07-29T07:57:44.277Z,65.30
2022-07-29T07:59:17.265Z,65.20
2022-07-29T08:00:50.224Z,65.10
2022-07-29T08:02:23.339Z,65.00
2022-07-29T08:03:56.380Z,65.00
2022-07-29T08:05:30.689Z,65.00
2022-07-29T08:07:04.438Z,65.00
2022-07-29T08:08:37.405Z,65.10
2022-07-29T08:10:10.958Z,65.00
2022-07-29T08:11:52.037Z,64.90
2022-07-29T08:13:28.227Z,64.70
2022-07-29T08:15:01.302Z,64.10
2022-07-29T08:16:34.517Z,64.20
2022-07-29T08:18:08.870Z,64.00
2022-07-29T08:19:42.026Z,64.10
2022-07-29T08:21:16.890Z,64.00
2022-07-29T08:22:49.946Z,64.10
2022-07-29T08:24:40.941Z,64.10
2022-07-29T08:26:14.934Z,64.30
2022-07-29T08:27:47.895Z,64.20
2022-07-29T08:29:20.652Z,64.20
2022-07-29T08:30:53.678Z,64.20
2022-07-29T08:32:52.084Z,64.20
2022-07-29T08:34:19.739Z,64.20
2022-07-29T08:36:01.121Z,64.20
2022-07-29T08:37:35.450Z,64.50
2022-07-29T08:39:08.465Z,64.50
2022-07-29T08:40:41.923Z,64.50
2022-07-29T08:42:14.981Z,65.30
2022-07-29T08:43:48.314Z,64.50
2022-07-29T08:45:22.551Z,64.50
2022-07-29T08:46:56.577Z,64.70
2022-07-29T08:48:30.478Z,64.70
2022-07-29T08:50:03.569Z,64.70
2022-07-29T08:51:49.681Z,64.50
2022-07-29T08:53:27.377Z,64.50
2022-07-29T08:55:01.239Z,64.20
2022-07-29T08:56:35.067Z,64.30
2022-07-29T08:58:08.235Z,64.30
2022-07-29T08:59:44.479Z,63.90
2022-07-29T09:01:23.535Z,64.00
2022-07-29T09:03:12.791Z,64.10
2022-07-29T09:04:46.171Z,63.90
2022-07-29T09:06:20.898Z,63.80
2022-07-29T09:07:54.143Z,63.50
2022-07-29T09:09:28.929Z,63.10
2022-07-29T09:11:05.550Z,62.80
2022-07-29T09:12:38.906Z,63.30
2022-07-29T09:14:14.319Z,62.30
2022-07-29T09:15:47.329Z,62.10
2022-07-29T09:17:20.906Z,62.20
2022-07-29T09:18:53.882Z,63.00
2022-07-29T09:20:27.351Z,62.10
2022-07-29T09:22:03.242Z,62.60
2022-07-29T09:23:36.783Z,61.60
2022-07-29T09:25:13.651Z,61.50
2022-07-29T09:26:48.035Z,61.50
2022-07-29T09:28:21.003Z,61.40
2022-07-29T09:30:02.114Z,61.00
2022-07-29T09:31:37.162Z,60.80
2022-07-29T09:33:10.410Z,60.50
2022-07-29T09:34:43.381Z,60.00
2022-07-29T09:36:16.599Z,60.30
2022-07-29T09:37:50.392Z,59.60
2022-07-29T09:39:31.210Z,59.50
2022-07-29T09:41:08.951Z,59.10
2022-07-29T09:42:42.133Z,58.50
2022-07-29T09:44:15.844Z,57.80
2022-07-29T09:45:50.314Z,57.70
2022-07-29T09:47:26.811Z,58.10
2022-07-29T09:49:09.811Z,58.10
2022-07-29T09:50:44.724Z,58.00
2022-07-29T09:52:17.747Z,58.10
2022-07-29T09:53:51.350Z,58.10
2022-07-29T09:55:26.688Z,58.50
2022-07-29T09:57:01.287Z,57.70
2022-07-29T09:58:35.564Z,57.60
2022-07-29T10:00:10.645Z,57.80
2022-07-29T10:01:43.943Z,57.80
2022-07-29T10:03:18.003Z,57.50
2022-07-29T10:04:51.149Z,57.50
2022-07-29T10:06:24.193Z,57.70
2022-07-29T10:07:58.799Z,57.10
2022-07-29T10:09:32.228Z,57.00
2022-07-29T10:11:13.872Z,57.20
2022-07-29T10:12:58.969Z,57.30
2022-07-29T10:14:33.685Z,57.10
2022-07-29T10:16:07.840Z,57.20
2022-07-29T10:17:41.888Z,57.40
2022-07-29T10:19:15.482Z,57.30
2022-07-29T10:20:49.148Z,56.70
2022-07-29T10:22:43.572Z,56.50
2022-07-29T10:24:15.653Z,56.60
2022-07-29T10:25:48.952Z,56.90
2022-07-29T10:27:21.953Z,56.90
2022-07-29T10:28:57.386Z,57.20
2022-07-29T10:30:30.447Z,56.90
2022-07-29T10:32:28.513Z,57.00
2022-07-29T10:34:12.876Z,56.60
2022-07-29T10:35:56.736Z,56.50
2022-07-29T10:37:39.640Z,56.50
2022-07-29T10:39:41.668Z,56.60
2022-07-29T10:41:59.769Z,56.30
2022-07-29T10:43:38.742Z,56.50
2022-07-29T10:45:13.202Z,56.80
2022-07-29T10:46:48.718Z,57.40
2022-07-29T10:48:23.600Z,57.90
2022-07-29T10:50:01.757Z,58.50
2022-07-29T10:51:57.222Z,59.00
2022-07-29T10:53:49.072Z,58.70
2022-07-29T10:55:37.730Z,58.80
2022-07-29T10:57:52.404Z,58.70
2022-07-29T10:59:36.425Z,58.80
2022-07-29T11:01:37.299Z,59.00
2022-07-29T11:03:32.198Z,59.10
2022-07-29T11:05:09.381Z,59.50
2022-07-29T11:07:10.026Z,60.70
2022-07-29T11:08:43.030Z,60.10
2022-07-29T11:12:48.251Z,60.40
2022-07-29T11:14:41.327Z,60.80
2022-07-29T11:16:16.768Z,60.70
2022-07-29T11:18:14.970Z,60.70
2022-07-29T11:19:52.013Z,60.90
2022-07-29T11:21:54.724Z,61.10
2022-07-29T11:23:33.864Z,61.00
2022-07-29T11:25:17.709Z,60.90
2022-07-29T11:27:18.074Z,60.60
2022-07-29T11:28:56.610Z,60.80
2022-07-29T11:30:51.461Z,61.30
2022-07-29T11:32:29.281Z,61.50
2022-07-29T11:34:21.301Z,61.50
2022-07-29T11:36:10.545Z,61.20
2022-07-29T11:38:28.036Z,61.10
2022-07-29T11:40:13.183Z,62.40
2022-07-29T11:41:46.437Z,61.80
2022-07-29T11:43:50.663Z,61.60
2022-07-29T11:45:44.312Z,61.20
2022-07-29T11:47:22.245Z,60.60
2022-07-29T11:48:58.526Z,59.90
2022-07-29T11:50:35.376Z,60.30
2022-07-29T11:52:10.884Z,60.00
2022-07-29T11:53:52.641Z,59.70
2022-07-29T11:55:32.654Z,60.00
2022-07-29T11:57:09.867Z,60.10
2022-07-29T11:58:43.369Z,59.50
2022-07-29T12:00:26.634Z,60.00
2022-07-29T12:02:33.283Z,60.40
2022-07-29T12:05:59.296Z,60.60
2022-07-29T12:07:35.278Z,59.80
2022-07-29T12:09:11.253Z,59.60
2022-07-29T12:10:49.410Z,59.30
2022-07-29T12:12:22.907Z,59.40
2022-07-29T12:13:57.633Z,59.10
2022-07-29T12:15:46.148Z,58.80
2022-07-29T12:17:30.972Z,58.60
2022-07-29T12:19:06.740Z,58.50
2022-07-29T12:20:41.837Z,59.20
2022-07-29T12:22:27.339Z,59.00
2022-07-29T12:24:05.929Z,59.10
2022-07-29T12:25:45.092Z,59.30
2022-07-29T12:27:29.466Z,58.60
2022-07-29T12:29:03.498Z,57.70
2022-07-29T12:30:39.906Z,57.50
2022-07-29T12:32:19.479Z,58.40
2022-07-29T12:33:55.673Z,58.40
2022-07-29T12:35:33.232Z,57.40
2022-07-29T12:37:06.393Z,56.40
2022-07-29T12:38:42.761Z,56.40
2022-07-29T12:40:18.306Z,56.10
2022-07-29T12:41:51.425Z,55.90
2022-07-29T12:43:25.381Z,55.80
2022-07-29T12:44:58.674Z,55.80
2022-07-29T12:46:32.113Z,55.50
2022-07-29T12:48:05.615Z,55.10
2022-07-29T12:49:38.687Z,54.80
2022-07-29T12:51:15.464Z,54.70
2022-07-29T12:52:48.926Z,54.20
2022-07-29T12:54:22.043Z,54.10
2022-07-29T12:56:07.967Z,53.90
2022-07-29T12:57:49.692Z,54.00
2022-07-29T12:59:24.632Z,54.00
2022-07-29T13:01:17.380Z,54.00
2022-07-29T13:02:57.917Z,53.60
2022-07-29T13:04:32.354Z,53.20
2022-07-29T13:06:05.400Z,53.50
2022-07-29T13:07:54.073Z,53.90
2022-07-29T13:09:39.927Z,53.60
2022-07-29T13:11:31.178Z,53.40
2022-07-29T13:13:09.696Z,53.30
2022-07-29T13:14:44.167Z,53.50
2022-07-29T13:16:17.263Z,53.60
2022-07-29T13:17:50.319Z,53.20
2022-07-29T13:19:35.594Z,53.00
2022-07-29T13:21:16.091Z,53.20
2022-07-29T13:22:51.067Z,53.20
2022-07-29T13:24:24.123Z,53.00
2022-07-29T13:26:06.787Z,53.50
2022-07-29T13:27:41.528Z,54.10
2022-07-29T13:29:14.419Z,53.40
2022-07-29T13:30:47.604Z,53.70
2022-07-29T13:32:27.914Z,53.40
2022-07-29T13:34:02.076Z,53.40
2022-07-29T13:35:35.173Z,54.30
2022-07-29T13:37:13.110Z,55.80
2022-07-29T13:38:47.481Z,58.10
2022-07-29T13:40:20.832Z,59.30
2022-07-29T13:41:53.992Z,60.00
2022-07-29T13:43:29.635Z,61.20
2022-07-29T13:45:03.103Z,59.80
2022-07-29T13:46:36.293Z,60.00
2022-07-29T13:48:13.131Z,60.80
2022-07-29T13:49:46.433Z,61.20
2022-07-29T13:51:19.397Z,61.50
2022-07-29T13:52:52.405Z,61.70
2022-07-29T13:54:27.003Z,61.60
2022-07-29T13:56:00.870Z,61.00
2022-07-29T13:57:33.882Z,60.10
2022-07-29T13:59:06.906Z,59.60
2022-07-29T14:00:40.063Z,60.50
2022-07-29T14:02:15.641Z,60.70
2022-07-29T14:03:48.759Z,62.10
2022-07-29T14:05:21.781Z,65.20
2022-07-29T14:06:54.767Z,66.30
2022-07-29T14:08:28.012Z,67.60
2022-07-29T14:10:02.361Z,69.00
2022-07-29T14:11:35.486Z,69.10
2022-07-29T14:13:25.240Z,71.80
2022-07-29T14:14:59.263Z,71.00
2022-07-29T14:16:32.324Z,69.90
2022-07-29T14:18:05.608Z,71.10
2022-07-29T14:19:39.105Z,69.90
2022-07-29T14:21:12.307Z,71.20
2022-07-29T14:22:45.752Z,70.30
2022-07-29T14:24:22.939Z,71.50
2022-07-29T14:25:57.489Z,71.30
2022-07-29T14:27:37.910Z,73.50
2022-07-29T14:29:11.529Z,75.10
2022-07-29T14:30:44.537Z,76.10
2022-07-29T14:32:17.621Z,75.00
2022-07-29T14:33:50.711Z,74.50
2022-07-29T14:35:23.721Z,75.80
2022-07-29T14:36:57.205Z,74.60
2022-07-29T14:38:30.260Z,74.60
2022-07-29T14:40:04.663Z,76.40
2022-07-29T14:41:39.117Z,76.40
2022-07-29T14:43:12.783Z,75.90
2022-07-29T14:44:45.959Z,75.40
2022-07-29T14:46:20.078Z,76.60
2022-07-29T14:47:56.372Z,77.10
2022-07-29T14:49:30.523Z,76.50
2022-07-29T14:51:05.132Z,76.60
2022-07-29T14:52:38.431Z,76.40
2022-07-29T14:54:11.490Z,76.50
2022-07-29T14:55:44.443Z,75.60
2022-07-29T14:57:18.635Z,75.60
2022-07-29T14:58:52.148Z,75.20
2022-07-29T15:00:25.222Z,75.00
2022-07-29T15:01:59.964Z,75.30
2022-07-29T15:03:33.968Z,75.20
2022-07-29T15:05:07.643Z,75.20
2022-07-29T15:06:40.622Z,76.40
2022-07-29T15:08:13.894Z,75.70
2022-07-29T15:09:49.304Z,75.30
2022-07-29T15:11:23.315Z,75.40
2022-07-29T15:12:57.846Z,76.30
2022-07-29T15:14:31.126Z,76.50
2022-07-29T15:16:04.408Z,76.20
2022-07-29T15:17:37.442Z,76.30
2022-07-29T15:19:10.163Z,76.10
2022-07-29T15:20:43.182Z,76.30
2022-07-29T15:22:16.065Z,76.70
2022-07-29T15:23:49.191Z,77.30
2022-07-29T15:25:22.273Z,77.70
2022-07-29T15:26:55.032Z,77.40
2022-07-29T15:28:29.381Z,77.40
2022-07-29T15:30:02.449Z,77.70
2022-07-29T15:31:35.291Z,77.30
2022-07-29T15:33:09.029Z,77.50
2022-07-29T15:34:42.068Z,77.30
2022-07-29T15:36:25.609Z,77.70
2022-07-29T15:38:08.094Z,77.70
2022-07-29T15:39:40.842Z,78.40
2022-07-29T15:41:16.174Z,78.80
2022-07-29T15:42:49.262Z,79.10
2022-07-29T15:44:23.382Z,79.40
2022-07-29T15:46:14.016Z,79.90
2022-07-29T15:47:47.039Z,80.30
2022-07-29T15:49:20.153Z,81.00
2022-07-29T15:50:56.246Z,80.60
2022-07-29T15:52:30.766Z,81.00
2022-07-29T15:54:04.484Z,81.30
2022-07-29T15:55:37.506Z,81.90
2022-07-29T15:57:10.712Z,83.00
2022-07-29T15:58:43.713Z,83.30
2022-07-29T16:00:18.667Z,83.70
2022-07-29T16:01:51.681Z,84.90
2022-07-29T16:03:24.759Z,85.60
2022-07-29T16:04:56.654Z,86.40
2022-07-29T16:06:29.731Z,87.10
2022-07-29T16:08:02.498Z,87.60
2022-07-29T16:09:35.493Z,88.20
2022-07-29T16:11:08.527Z,88.60
2022-07-29T16:12:41.819Z,90.40
2022-07-29T16:14:14.859Z,90.90
2022-07-29T16:16:02.190Z,91.60
2022-07-29T16:17:36.141Z,91.80
2022-07-29T16:19:10.170Z,92.50
2022-07-29T16:20:43.409Z,92.90
2022-07-29T16:22:16.628Z,93.80
2022-07-29T16:23:49.749Z,94.10
2022-07-29T16:25:38.474Z,94.80
2022-07-29T16:27:15.684Z,95.50
2022-07-29T16:28:47.648Z,96.30
2022-07-29T16:30:23.016Z,96.90
2022-07-29T16:31:57.495Z,97.40
2022-07-29T16:33:54.700Z,97.70
2022-07-29T16:35:23.671Z,98.70
2022-07-29T16:37:12.471Z,98.30
2022-07-29T16:38:47.071Z,99.10
2022-07-29T16:40:20.530Z,98.60
2022-07-29T16:41:55.925Z,98.60
2022-07-29T16:43:32.526Z,99.00
2022-07-29T16:45:06.840Z,98.40
2022-07-29T16:46:40.284Z,99.90
2022-07-29T16:48:17.960Z,99.90
2022-07-29T16:49:51.454Z,99.90
2022-07-29T16:51:24.351Z,99.90
2022-07-29T16:52:57.426Z,99.90
2022-07-29T16:54:30.773Z,99.90
2022-07-29T16:56:03.701Z,99.90
2022-07-29T16:57:36.710Z,99.90
2022-07-29T16:59:10.223Z,99.90
2022-07-29T17:00:43.353Z,99.90
2022-07-29T17:02:16.347Z,99.90
2022-07-29T17:04:09.255Z,99.90
2022-07-29T17:05:52.762Z,99.90
2022-07-29T17:07:27.437Z,99.90
2022-07-29T17:09:00.435Z,99.90
2022-07-29T17:10:33.784Z,99.90
2022-07-29T17:12:07.504Z,99.90
2022-07-29T17:13:40.503Z,99.90
2022-07-29T17:15:14.404Z,99.90
2022-07-29T17:16:58.908Z,99.90
2022-07-29T17:18:34.445Z,99.90
2022-07-29T17:20:10.428Z,99.90
2022-07-29T17:21:47.301Z,99.90
2022-07-29T17:23:22.232Z,99.90
2022-07-29T17:24:55.521Z,99.90
2022-07-29T17:26:28.832Z,99.90
2022-07-29T17:28:01.878Z,99.90
2022-07-29T17:29:35.935Z,99.90
2022-07-29T17:31:08.943Z,99.90
2022-07-29T17:32:42.047Z,99.90
2022-07-29T17:34:15.357Z,99.90
2022-07-29T17:36:07.652Z,99.90
2022-07-29T17:37:43.968Z,99.90
2022-07-29T17:39:17.019Z,99.90
2022-07-29T17:40:50.279Z,99.90
2022-07-29T17:42:23.321Z,99.90
2022-07-29T17:43:57.324Z,99.90
2022-07-29T17:45:49.660Z,99.90
2022-07-29T17:47:23.481Z,99.90
2022-07-29T17:48:57.639Z,99.90
2022-07-29T17:50:30.683Z,99.90
2022-07-29T17:52:05.379Z,99.90
2022-07-29T17:53:38.781Z,99.90
2022-07-29T17:55:13.278Z,99.90
2022-07-29T17:56:46.317Z,99.90
2022-07-29T17:58:19.327Z,99.90
2022-07-29T17:59:53.574Z,99.90
2022-07-29T18:01:26.637Z,99.90
2022-07-29T18:02:59.697Z,99.90
2022-07-29T18:04:32.753Z,99.90
2022-07-29T18:06:06.199Z,99.90
2022-07-29T18:07:40.904Z,99.90
2022-07-29T18:09:13.825Z,99.90
2022-07-29T18:10:47.259Z,99.90
2022-07-29T18:12:20.448Z,99.90
2022-07-29T18:13:53.312Z,99.90
2022-07-29T18:15:26.381Z,99.90
2022-07-29T18:17:01.113Z,99.90
2022-07-29T18:18:34.732Z,99.90
2022-07-29T18:20:08.751Z,99.90
2022-07-29T18:21:51.833Z,99.90
2022-07-29T18:23:29.247Z,99.90
2022-07-29T18:25:02.397Z,99.90
2022-07-29T18:26:35.189Z,99.90
2022-07-29T18:28:08.740Z,99.90
2022-07-29T18:29:41.722Z,99.90
2022-07-29T18:31:14.777Z,99.90
2022-07-29T18:33:18.146Z,99.90
2022-07-29T18:34:42.357Z,99.90
2022-07-29T18:36:15.903Z,99.90
2022-07-29T18:38:00.814Z,99.90
2022-07-29T18:39:37.157Z,99.90
2022-07-29T18:41:10.184Z,99.90
2022-07-29T18:42:43.240Z,99.90
2022-07-29T18:44:17.538Z,99.90
2022-07-29T18:45:50.803Z,99.90
2022-07-29T18:47:24.121Z,99.90
2022-07-29T18:49:05.080Z,99.90
2022-07-29T18:50:38.139Z,99.90
2022-07-29T18:52:11.182Z,99.90
2022-07-29T18:53:44.149Z,99.90
2022-07-29T18:55:18.645Z,99.90
2022-07-29T18:56:51.928Z,99.90
2022-07-29T18:58:25.011Z,99.90
2022-07-29T18:59:57.158Z,99.90
2022-07-29T19:01:31.596Z,99.90
2022-07-29T19:03:05.259Z,99.90
2022-07-29T19:04:38.246Z,99.90
2022-07-29T19:06:11.312Z,99.90
2022-07-29T19:07:44.385Z,99.90
2022-07-29T19:09:17.887Z,99.90
2022-07-29T19:10:52.348Z,99.90
2022-07-29T19:12:25.475Z,99.90
2022-07-29T19:13:58.612Z,99.90
2022-07-29T19:15:31.436Z,99.90
2022-07-29T19:17:05.286Z,99.90
2022-07-29T19:18:38.690Z,99.90
2022-07-29T19:20:12.965Z,99.90
2022-07-29T19:21:47.030Z,99.90
2022-07-29T19:23:20.200Z,99.90
2022-07-29T19:24:53.277Z,99.90
2022-07-29T19:26:27.855Z,99.90
2022-07-29T19:28:01.030Z,99.90
2022-07-29T19:29:34.920Z,99.90
2022-07-29T19:31:08.640Z,99.90
2022-07-29T19:32:41.685Z,99.90
2022-07-29T19:34:14.791Z,99.90
2022-07-29T19:35:50.346Z,99.90
2022-07-29T19:37:25.953Z,99.90
2022-07-29T19:38:59.996Z,99.90
2022-07-29T19:40:33.262Z,99.90
2022-07-29T19:42:08.407Z,99.90
2022-07-29T19:43:51.590Z,99.90
2022-07-29T19:45:26.801Z,99.90
2022-07-29T19:47:00.735Z,99.90
2022-07-29T19:48:34.215Z,99.90
2022-07-29T19:50:07.707Z,99.90
2022-07-29T19:51:41.638Z,99.90
2022-07-29T19:53:15.110Z,99.90
2022-07-29T19:54:48.525Z,99.90
2022-07-29T19:56:21.782Z,99.90
2022-07-29T19:57:59.714Z,99.90
2022-07-29T19:59:33.819Z,99.90
2022-07-29T20:01:10.403Z,99.90
2022-07-29T20:02:44.435Z,99.90
2022-07-29T20:04:17.567Z,99.90
2022-07-29T20:05:52.506Z,99.90
2022-07-29T20:07:26.015Z,99.90
2022-07-29T20:08:59.266Z,99.90
2022-07-29T20:10:32.176Z,99.90
2022-07-29T20:12:06.575Z,99.90
2022-07-29T20:13:41.117Z,99.90
2022-07-29T20:15:16.566Z,99.90
2022-07-29T20:16:50.178Z,99.90
2022-07-29T20:18:23.243Z,99.90
2022-07-29T20:19:59.925Z,99.90
2022-07-29T20:21:33.938Z,99.90
2022-07-29T20:23:07.025Z,99.90
2022-07-29T20:24:40.031Z,99.90
2022-07-29T20:26:15.063Z,99.90
2022-07-29T20:27:50.458Z,99.90
2022-07-29T20:29:25.449Z,99.90
2022-07-29T20:30:58.467Z,99.90
2022-07-29T20:32:31.716Z,99.90
2022-07-29T20:34:04.699Z,99.90
2022-07-29T20:35:37.830Z,99.90
2022-07-29T20:37:13.382Z,99.90
2022-07-29T20:38:46.503Z,99.90
2022-07-29T20:40:19.587Z,99.90
2022-07-29T20:41:52.437Z,99.90
2022-07-29T20:43:25.563Z,99.90
2022-07-29T20:45:00.255Z,99.90
2022-07-29T20:46:33.558Z,99.90
2022-07-29T20:48:08.346Z,99.90
2022-07-29T20:49:41.577Z,99.90